Latest Weather Observations for Horsham

IDV60801

Issued at 10:02 am EDT Thursday 23 January 2020 (issued every 10 minutes, with the page automatically refreshed every 10 minutes)

About weather observations | Map of weather stations | Latest weather observations for VIC | Other Formats
Station Details ID: 079100 Name: HORSHAM AERODROME Lat: -36.67 Lon: 142.17 Height: 133.8 m
Data from the previous 72 hours. | See also: Recent months at Horsham
Date/Time
EDT
Temp
°C
App
Temp
°C
Dew
Point
°C
Rel
Hum
%
Delta-T
°C
Wind Press
QNH
hPa
Press
MSL
hPa
Rain since
9am
mm
Dir  Spd
km/h
Gust
km/h
Spd
kts
Gust
kts
23/10:00am 17.6 9.8 12.9 74 2.7 NW 46 61 25 33 997.3 996.8 0.2
23/09:32am 16.1 9.3 13.0 82 1.7 NW 41 54 22 29 997.5 997.0 0.2
23/09:30am 15.9 8.6 12.8 82 1.7 NW 43 54 23 29 997.4 996.9 0.2
23/09:00am 15.0 10.0 13.4 90 0.9 NNW 32 41 17 22 997.6 997.1 8.6
23/08:31am 13.6 9.0 12.3 92 0.7 NNW 28 35 15 19 997.6 997.1 8.6
23/08:30am 13.5 8.5 12.2 92 0.7 NNW 30 35 16 19 997.6 997.1 8.6
23/08:00am 13.2 8.9 12.1 93 0.6 NNW 26 32 14 17 997.1 996.6 8.6
23/07:30am 12.6 9.4 11.8 95 0.4 NNW 20 26 11 14 997.3 996.8 8.6
23/07:00am 12.2 8.1 11.4 95 0.4 NW 24 32 13 17 997.0 996.5 8.6
23/06:30am 12.1 10.1 11.6 97 0.3 NNW 13 17 7 9 997.4 996.9 8.6
23/06:00am 11.7 10.0 11.1 96 0.3 N 11 13 6 7 997.3 996.8 7.6
23/05:30am 11.4 9.6 10.8 96 0.3 N 11 13 6 7 997.5 997.0 7.2
23/05:00am 11.4 9.5 10.6 95 0.4 WNW 11 15 6 8 998.2 997.6 6.6
23/04:30am 11.4 8.7 10.5 94 0.5 W 15 24 8 13 998.2 997.6 4.8
23/04:00am 12.0 8.5 10.9 93 0.6 WSW 20 30 11 16 998.3 997.7 4.0
23/03:30am 13.3 11.6 12.5 95 0.4 NNW 13 17 7 9 998.3 997.7 4.0
23/03:00am 12.8 11.7 11.9 94 0.5 N 9 13 5 7 998.3 997.7 4.0
23/02:30am 12.9 11.8 11.8 93 0.6 NE 9 11 5 6 998.3 997.7 4.0
23/02:00am 13.0 11.5 11.9 93 0.6 NNE 11 13 6 7 998.6 998.0 3.8
23/01:30am 13.2 13.0 11.9 92 0.7 NNE 4 9 2 5 999.0 998.4 3.8
23/01:00am 13.1 12.3 11.8 92 0.7 E 7 7 4 4 998.9 998.3 3.8
23/12:30am 13.3 12.6 11.9 91 0.8 E 7 11 4 6 999.2 998.6 3.6
23/12:21am 13.5 12.4 11.9 90 0.9 ESE 9 13 5 7 999.4 998.8 3.6
23/12:02am 13.4 12.6 11.6 89 1.0 SE 7 9 4 5 999.5 998.9 3.2
23/12:00am 13.4 12.6 11.6 89 1.0 SE 7 9 4 5 999.7 999.1 3.0
 
Date/Time
EDT
Temp
°C
App
Temp
°C
Dew
Point
°C
Rel
Hum
%
Delta-T
°C
Wind Press
QNH
hPa
Press
MSL
hPa
Rain since
9am
mm
Dir  Spd
km/h
Gust
km/h
Spd
kts
Gust
kts
22/11:30pm 13.6 12.4 11.5 87 1.1 SSW 9 11 5 6 999.8 999.2 2.2
22/11:00pm 13.9 11.9 11.4 85 1.3 SSW 13 17 7 9 999.8 999.2 1.6
22/10:30pm 14.5 12.5 11.5 82 1.6 SW 13 17 7 9 1000.7 1000.1 1.2
22/10:00pm 14.6 15.1 11.6 82 1.6 CALM 0 0 0 0 1001.2 1000.7 0.8
22/09:30pm 14.8 13.5 11.4 80 1.8 SSW 9 9 5 5 1000.3 999.7 0.4
22/09:00pm 15.3 11.6 10.1 71 2.8 SW 20 28 11 15 999.4 998.8 0.2
22/08:30pm 16.5 12.1 9.0 61 3.9 SW 22 30 12 16 999.2 998.6 0.2
22/08:00pm 16.8 12.0 9.0 60 4.1 SW 24 30 13 16 998.5 997.9 0.2
22/07:30pm 17.2 11.6 8.6 57 4.4 SW 28 35 15 19 997.8 997.3 0.2
22/07:00pm 17.2 12.0 10.3 64 3.7 SW 28 39 15 21 997.8 997.3 0.2
22/06:30pm 16.8 13.4 12.5 76 2.4 SW 22 28 12 15 998.3 997.7 0.2
22/06:00pm 16.8 11.6 12.7 77 2.3 SW 32 41 17 22 997.4 996.9 0.2
22/05:30pm 17.7 12.9 14.6 82 1.8 SW 33 48 18 26 998.1 997.5 0.0
22/05:00pm 20.8 14.3 13.0 61 4.5 SW 39 46 21 25 997.6 997.1 0.0
22/04:30pm 25.0 18.5 11.6 43 7.6 WSW 37 50 20 27 997.3 996.8 0.0
22/04:00pm 25.0 17.5 10.8 41 8.0 SW 41 54 22 29 997.0 996.5 0.0
22/03:38pm 25.2 17.2 10.3 39 8.3 WSW 43 57 23 31 996.9 996.4 0.0
22/03:30pm 26.9 18.8 10.2 35 9.4 W 43 95 23 51 996.9 996.4 0.0
22/03:24pm 28.7 17.9 9.9 31 10.6 NW 57 95 31 51 996.9 996.4 0.0
22/03:22pm 31.0 17.9 6.8 22 13.1 NNW 65 95 35 51 997.1 996.6 0.0
22/03:05pm 32.7 19.8 6.1 19 14.4 NNW 63 83 34 45 995.8 995.3 0.0
22/03:00pm 33.4 21.6 5.9 18 15.0 NNW 57 80 31 43 996.1 995.6 0.0
22/02:30pm 31.4 20.3 6.5 21 13.5 NNW 54 82 29 44 996.6 996.1 0.0
22/02:28pm 31.0 19.5 6.1 21 13.3 NNW 56 82 30 44 996.3 995.8 0.0
22/02:00pm 31.9 21.3 6.9 21 13.7 N 52 69 28 37 996.8 996.3 0.0
22/01:58pm 32.1 22.1 6.3 20 14.0 N 48 69 26 37 996.8 996.3 0.0
22/01:30pm 30.6 21.4 6.5 22 13.0 NNW 44 57 24 31 997.7 997.2 0.0
22/01:13pm 29.2 22.0 7.7 26 11.7 NNW 35 54 19 29 998.6 998.0 0.0
22/01:00pm 29.1 21.0 7.1 25 11.9 NNW 39 54 21 29 999.1 998.5 0.0
22/12:30pm 28.4 21.8 5.9 24 11.8 N 30 39 16 21 999.4 998.8 0.0
22/12:00pm 27.9 19.9 5.5 24 11.7 NNW 37 48 20 26 1000.0 999.4 0.0
22/11:30am 28.3 17.8 5.8 24 11.8 N 50 63 27 34 1000.3 999.7 0.0
22/11:18am 28.5 19.1 5.4 23 12.1 N 44 63 24 34 1000.7 1000.1 0.0
22/11:00am 27.6 18.5 5.8 25 11.5 N 43 56 23 30 1000.8 1000.2 0.0
22/10:30am 26.6 18.2 5.5 26 10.9 N 39 54 21 29 1001.1 1000.5 0.0
22/10:17am 26.9 17.6 5.2 25 11.2 N 43 61 23 33 1000.9 1000.3 0.0
22/10:00am 26.9 18.3 6.3 27 10.9 N 41 54 22 29 1001.1 1000.5 0.0
22/09:49am 26.2 17.9 6.3 28 10.4 N 39 57 21 31 1001.3 1000.8 0.0
22/09:30am 25.5 16.9 6.7 30 9.9 N 41 54 22 29 1001.3 1000.8 0.0
22/09:00am 25.0 16.3 7.6 33 9.3 N 43 56 23 30 1001.2 1000.7 0.0
22/08:30am 23.6 15.5 8.5 38 8.1 N 41 52 22 28 1001.7 1001.2 0.0
22/08:00am 22.2 16.4 9.4 44 7.0 N 30 39 16 21 1001.7 1001.2 0.0
22/07:30am 18.8 14.2 9.6 55 4.9 NNE 24 30 13 16 1001.4 1000.9 0.0
22/07:00am 18.3 13.7 9.6 57 4.6 NNE 24 30 13 16 1001.2 1000.7 0.0
22/06:30am 18.0 13.0 9.4 57 4.5 NNE 26 32 14 17 1001.3 1000.8 0.0
22/06:00am 17.6 12.9 9.2 58 4.4 NNE 24 32 13 17 1001.5 1001.0 0.0
22/05:30am 17.2 12.1 9.1 59 4.2 NNE 26 32 14 17 1001.8 1001.3 0.0
22/05:00am 16.5 11.6 8.5 59 4.1 NNE 24 32 13 17 1002.2 1001.7 0.0
22/04:30am 15.7 11.1 8.2 61 3.8 NNE 22 28 12 15 1002.4 1001.9 0.0
22/04:00am 15.5 11.2 7.8 60 3.9 NNE 20 24 11 13 1003.1 1002.6 0.0
22/03:30am 15.5 11.3 7.3 58 4.1 NNE 19 22 10 12 1003.4 1002.9 0.0
22/03:00am 15.4 11.1 6.9 57 4.2 NNE 19 24 10 13 1003.7 1003.2 0.0
22/02:30am 14.9 11.4 7.0 59 3.9 N 15 17 8 9 1004.2 1003.7 0.0
22/02:00am 14.7 11.9 8.4 66 3.2 N 13 17 7 9 1004.6 1004.1 0.0
22/01:30am 15.8 13.1 8.8 63 3.6 NNE 13 17 7 9 1004.7 1004.2 0.0
22/01:00am 16.1 13.7 8.8 62 3.8 NNE 11 13 6 7 1004.9 1004.4 0.0
22/12:30am 16.3 14.4 7.5 56 4.4 N 7 11 4 6 1005.2 1004.7 0.0
22/12:00am 16.7 13.9 8.7 59 4.1 NNE 13 15 7 8 1005.3 1004.8 0.0
 
Date/Time
EDT
Temp
°C
App
Temp
°C
Dew
Point
°C
Rel
Hum
%
Delta-T
°C
Wind Press
QNH
hPa
Press
MSL
hPa
Rain since
9am
mm
Dir  Spd
km/h
Gust
km/h
Spd
kts
Gust
kts
21/11:30pm 17.4 13.8 8.5 56 4.6 NNE 17 19 9 10 1005.5 1005.0 0.0
21/11:00pm 17.7 14.6 8.8 56 4.6 NNE 15 17 8 9 1005.8 1005.2 0.0
21/10:30pm 18.0 15.3 8.8 55 4.8 NNE 13 15 7 8 1005.5 1005.0 0.0
21/10:00pm 21.8 19.3 6.5 37 7.8 N 9 11 5 6 1005.8 1005.2 0.0
21/09:30pm 21.9 19.8 6.6 37 7.8 NNW 7 9 4 5 1006.0 1005.4 0.0
21/09:00pm 23.3 21.3 6.1 33 8.8 WNW 6 9 3 5 1005.9 1005.3 0.0
21/08:30pm 24.9 21.5 5.7 29 9.9 NW 13 17 7 9 1005.9 1005.3 0.0
21/08:00pm 26.2 21.5 5.2 26 10.8 NW 19 24 10 13 1005.8 1005.2 0.0
21/07:30pm 26.7 21.9 4.5 24 11.3 WNW 19 26 10 14 1005.8 1005.2 0.0
21/07:00pm 27.0 21.1 4.1 23 11.6 NW 24 33 13 18 1005.8 1005.2 0.0
21/06:30pm 27.0 22.2 4.7 24 11.4 NW 19 32 10 17 1005.9 1005.3 0.0
21/06:00pm 27.1 21.1 3.6 22 11.8 NW 24 32 13 17 1006.0 1005.4 0.0
21/05:30pm 27.1 22.2 4.2 23 11.6 WNW 19 35 10 19 1006.2 1005.6 0.0
21/05:00pm 26.5 22.0 4.3 24 11.3 WNW 17 35 9 19 1006.5 1005.9 0.0
21/04:30pm 27.1 22.8 5.4 25 11.2 W 17 28 9 15 1006.9 1006.3 0.0
21/04:00pm 25.7 21.8 5.3 27 10.5 NW 15 30 8 16 1007.5 1006.9 0.0
21/03:30pm 25.0 21.6 5.7 29 9.9 WSW 13 22 7 12 1008.0 1007.5 0.0
21/03:00pm 24.7 20.9 6.0 30 9.7 W 15 26 8 14 1008.4 1007.9 0.0
21/02:30pm 23.5 18.9 5.4 31 9.2 W 19 33 10 18 1009.0 1008.5 0.0
21/02:00pm 23.2 19.4 5.6 32 8.9 W 15 24 8 13 1009.5 1009.0 0.0
21/01:30pm 22.1 18.1 5.1 33 8.5 W 15 24 8 13 1009.9 1009.4 0.0
21/01:00pm 21.0 18.7 5.8 37 7.6 SW 7 11 4 6 1010.3 1009.8 0.0
21/12:30pm 20.1 18.0 6.8 42 6.8 WNW 7 11 4 6 1010.7 1010.2 0.0
21/12:00pm 19.3 17.4 6.8 44 6.3 SW 6 11 3 6 1011.1 1010.6 0.0
21/11:30am 18.1 16.3 7.8 51 5.3 NNW 7 11 4 6 1011.5 1011.0 0.0
21/11:00am 17.7 15.9 8.0 53 5.0 SE 7 13 4 7 1011.7 1011.2 0.0
21/10:30am 16.3 14.6 8.3 59 4.1 SE 7 11 4 6 1011.9 1011.4 0.0
21/10:00am 15.7 13.6 8.2 61 3.8 S 9 17 5 9 1012.1 1011.6 0.0
21/09:30am 14.7 11.8 8.0 64 3.4 S 13 20 7 11 1012.4 1011.9 0.0
21/09:00am 14.2 11.6 9.2 72 2.6 SSW 13 19 7 10 1012.3 1011.8 0.0
21/08:30am 12.8 10.6 9.4 80 1.7 SW 11 13 6 7 1012.0 1011.5 -
21/08:00am 11.6 9.0 9.5 87 1.1 SW 13 15 7 8 1011.8 1011.3 -
21/07:30am 9.7 7.2 8.0 89 0.8 WSW 11 15 6 8 1011.5 1011.0 -
21/07:00am 9.2 6.2 7.6 90 0.8 WSW 13 15 7 8 1011.1 1010.6 -
21/06:30am 9.0 6.3 7.5 90 0.7 WSW 11 13 6 7 1010.8 1010.3 -
21/06:00am 9.2 6.2 7.6 90 0.8 WSW 13 15 7 8 1010.5 1010.0 -
21/05:30am 9.3 6.7 7.6 89 0.8 SW 11 13 6 7 1010.0 1009.5 -
21/05:00am 9.6 6.6 7.9 89 0.8 SW 13 15 7 8 1009.7 1009.2 -
21/04:30am 9.7 6.8 8.0 89 0.8 SW 13 15 7 8 1009.5 1009.0 -
21/04:00am 10.0 7.9 8.1 88 0.9 SW 9 11 5 6 1009.5 1009.0 -
21/03:30am 10.4 7.6 8.5 88 0.9 SW 13 17 7 9 1009.5 1009.0 -
21/03:00am 11.0 8.3 8.8 86 1.1 SW 13 17 7 9 1009.5 1009.0 -
21/02:30am 11.3 8.2 8.9 85 1.2 SSW 15 17 8 9 1009.7 1009.2 -
21/02:00am 11.6 8.9 8.8 83 1.4 SSW 13 15 7 8 1010.1 1009.6 -
21/01:30am 12.5 9.1 9.3 81 1.6 SSW 17 22 9 12 1010.2 1009.7 -
21/01:00am 12.8 - 9.6 81 1.6 - - - - - 1010.4 1009.9 -
21/12:00am 13.7 8.3 9.6 76 2.1 S 28 35 15 19 1010.3 1009.8 0.0
 
Date/Time
EDT
Temp
°C
App
Temp
°C
Dew
Point
°C
Rel
Hum
%
Delta-T
°C
Wind Press
QNH
hPa
Press
MSL
hPa
Rain since
9am
mm
Dir  Spd
km/h
Gust
km/h
Spd
kts
Gust
kts
20/11:30pm 13.9 9.0 10.1 78 2.0 SSW 26 32 14 17 1010.3 1009.8 0.0
20/11:00pm 14.5 9.3 10.3 76 2.2 SSW 28 39 15 21 1010.3 1009.8 0.0
20/10:30pm 15.2 10.5 10.6 74 2.4 SSW 26 33 14 18 1010.3 1009.8 0.0
20/10:00pm 15.3 11.0 10.7 74 2.5 SSW 24 33 13 18 1010.1 1009.6 0.0
20/09:30pm 15.8 11.2 11.2 74 2.5 SSW 26 33 14 18 1009.9 1009.4 0.0
20/09:00pm 16.2 10.9 11.4 73 2.6 SSW 30 37 16 20 1009.7 1009.2 0.0
20/08:30pm 16.5 10.4 11.9 74 2.5 SSW 35 44 19 24 1009.1 1008.6 0.0
20/08:00pm 17.5 11.7 12.6 73 2.7 SSW 35 44 19 24 1008.5 1008.0 0.0
20/07:30pm 18.1 12.0 13.0 72 2.9 SSW 37 46 20 25 1008.2 1007.7 0.0
20/07:00pm 18.7 12.7 13.3 71 3.1 SSW 37 50 20 27 1007.8 1007.3 0.0
20/06:30pm 19.0 12.3 13.4 70 3.2 SSW 41 48 22 26 1007.3 1006.7 0.0
20/06:00pm 19.7 12.8 13.9 69 3.4 SSW 43 52 23 28 1007.0 1006.4 0.0
20/05:30pm 19.9 13.4 14.0 69 3.4 SSW 41 54 22 29 1006.9 1006.3 0.0
20/05:00pm 20.4 13.6 14.3 68 3.6 SSW 43 52 23 28 1006.6 1006.0 0.0
20/04:30pm 21.6 14.4 14.7 65 4.1 SSW 46 57 25 31 1006.1 1005.5 0.0
20/04:24pm 21.6 14.9 15.0 66 3.9 SSW 44 56 24 30 1006.1 1005.5 0.0
20/04:11pm 21.6 14.5 15.0 66 3.9 SW 46 57 25 31 1006.1 1005.5 0.0
20/04:00pm 21.8 14.7 14.9 65 4.1 SSW 46 56 25 30 1005.9 1005.3 0.0
20/03:30pm 23.9 17.7 15.9 61 4.9 SSW 43 54 23 29 1005.8 1005.2 0.0
20/03:00pm 22.6 16.8 15.0 62 4.6 SSW 39 52 21 28 1005.6 1005.1 0.0
20/02:30pm 23.2 17.5 15.3 61 4.8 SSW 39 48 21 26 1005.6 1005.1 0.0
20/02:00pm 22.4 17.3 15.7 66 4.1 SSW 37 46 20 25 1005.9 1005.3 0.0
20/01:30pm 22.4 18.0 15.7 66 4.0 SSW 33 46 18 25 1005.6 1005.1 0.0
20/01:00pm 22.2 18.4 16.7 71 3.4 SSW 32 41 17 22 1005.8 1005.2 0.0
20/12:30pm 21.9 18.3 16.2 70 3.5 SSW 30 41 16 22 1006.0 1005.4 0.0
20/12:00pm 20.8 17.4 15.8 73 3.0 SSW 28 35 15 19 1006.1 1005.5 0.0
20/11:30am 20.4 16.9 15.6 74 2.9 S 28 35 15 19 1006.1 1005.5 0.0
20/11:16am 21.1 17.6 16.5 75 2.8 S 30 37 16 20 1006.1 1005.5 0.0
20/11:03am 20.4 16.4 16.2 77 2.5 S 32 41 17 22 1006.1 1005.5 0.0
20/11:00am 20.1 16.1 16.3 79 2.3 S 32 39 17 21 1006.1 1005.5 0.0
20/10:30am 20.7 17.5 17.3 81 2.1 S 30 33 16 18 1006.0 1005.4 0.0

Other formats

Comma delimited format used in spreadsheet applications
http://www.bom.gov.au/fwo/IDV60801/IDV60801.95839.axf

JavaScript Object Notation format (JSON) in row-major order
http://www.bom.gov.au/fwo/IDV60801/IDV60801.95839.json

Data quality

Most of these data are generated automatically and are frequently updated. Quality checks on data are not normally performed. It is possible for incorrect values to appear. Refer to information at About Latest Weather Observations and please check the disclaimer before using these data.